AirNav   Everest Fuels
 
 971 users online  

7WI6 Weatherbee Field Airport
Wyocena, Wisconsin, USA

GOING TO WYOCENA?


FAA INFORMATION EFFECTIVE 26 JANUARY 2023

Location

FAA Identifier: 7WI6
Lat/Long: 43-28-13.9430N 089-21-32.4240W
43-28.232383N 089-21.540400W
43.4705397,-89.3590067
(estimated)
Elevation: 960 ft. / 293 m (estimated)
Variation: 01W (1995)
From city: 5 miles NE of WYOCENA, WI
Time zone: UTC -6 (UTC -5 during Daylight Saving Time)
Zip code: 53954

Airport Operations

Airport use: Private use. Permission required prior to landing
Activation date: 10/1999
Control tower: no
ARTCC: CHICAGO CENTER
FSS: GREEN BAY FLIGHT SERVICE STATION
Attendance: UNATNDD
Wind indicator: no
Segmented circle: no

Airport Communications

WX AWOS-3 at DLL (18 nm W): 118.325 (608-356-1071)
WX ASOS at MSN (20 nm S): PHONE 608-249-0615

Nearby radio navigation aids

VOR radial/distance  VOR name  Freq  Var
DLLr102/18.3DELLS VORTAC117.0003E
MSNr355/19.6MADISON VORTAC108.6003E

 
NDB name  Hdg/Dist  Freq  Var  ID
ROCK RIVER304/32.937101WRYV .-. -.-- ...-

Airport Services

Runway Information

Runway 6/24

Dimensions: 1200 x 30 ft. / 366 x 9 m
Surface: turf
RUNWAY 6  RUNWAY 24
Traffic pattern: rightleft
Displaced threshold: 200 ft.
RY 06 & 24 DSPLCD THLDS ARE MKD WITH BLUE PLASTIC HALF BARRELS.
75 ft.
Obstructions: 15 ft. trees, 1500 ft. from runway30 ft. trees, 600 ft. from runway

Airport Ownership and Management from official FAA records

Ownership: Privately-owned
Owner: DAVID SWINBURNE
7204 PHILLIPS RD
PARDEEVILLE, WI 53954
Manager: DAVID SWINBURNE
7204 PHILLIPS RD
PARDEEVILLE, WI 53954
Phone (608) 429-4271
OTHER CONTACT DAVID SWINBURNE - 608-429-2372

Additional Remarks

FOR CD CTC CHICAGO ARTCC AT 630-906-8921.

Instrument Procedures

There are no published instrument procedures at 7WI6.

Some nearby airports with instrument procedures:

C47 - Portage Municipal Airport (8 nm NW)
KDLL - Baraboo/Wisconsin Dells Regional Airport (18 nm W)
KMSN - Dane County Regional Airport-Truax Field (20 nm S)
91C - Sauk/Prairie Airport (20 nm SW)
C29 - Middleton Municipal Airport - Morey Field (23 nm S)
 
Loc | Ops | Rwys | IFR | FBO | Links
Com | Nav | Svcs | Stats | Notes
Area around 7WI6 (Weatherbee Field Airport)
 
Road maps at: MapQuest Bing Google
 
Aerial photo
No photo
 
Sectional chart

 
Airport distance calculator
Flying to Weatherbee Field Airport? Find the distance to fly.

From to 7WI6

Sunrise and sunset
Times for 06-Feb-2023
 Local
(UTC-6)
 Zulu
(UTC)
Morning civil twilight06:3912:39
Sunrise07:0913:09
Sunset17:1423:14
Evening civil twilight17:4423:44

Current date and time
Zulu (UTC)  07-Feb-2023 04:13:27
Local (UTC-6)  06-Feb-2023 22:13:27
 
METAR
KDLL 
18nm W 
070355Z AUTO 17013G21KT 10SM -RA OVC036 06/01 A2963 RMK AO2 T00550006
KMSN 
20nm S 
070353Z 16024G32KT 10SM OVC040 05/M01 A2969 RMK AO2 PK WND 17034/0338 PRESFR SLP061 T00501011
KC29 
23nm S 
070355Z AUTO 16018G26KT 10SM SCT040 BKN047 OVC095 06/00 A2966 RMK AO1 T00570000
KC35 
27nm W 
070355Z AUTO 17013G21KT 10SM OVC038 05/00 A2963 RMK AO2 T00500000 PWINO
KUNU 
29nm E 
070355Z AUTO 14014G21KT 10SM OVC046 02/M02 A2974 RMK AO2 T00231019
KRYV 
33nm SE 
070355Z AUTO 15008KT 10SM OVC046 03/M03 A2974 RMK AO2 T00301026
KY50 
34nm N 
070356Z AUTO 17010G19KT 10SM -RA SCT046 BKN065 OVC100 03/M02 A2966 RMK AO2 RAB54 SLP052 T00331017 $
TAF
KMSN 
20nm S 
062147Z 0622/0718 15014G23KT P6SM BKN200 FM070300 17019G28KT P6SM VCSH OVC035 WS020/19055KT TEMPO 0704/0706 5SM -RA BR OVC025 FM070600 19015G24KT P6SM VCSH OVC012 WS020/21050KT FM070700 21014G23KT P6SM OVC009 WS020/23045KT FM071000 26014G22KT P6SM OVC010
NOTAMs
Click for the latest NOTAMs
NOTAMs are issued by the DoD/FAA and will open in a separate window not controlled by AirNav.

 

 
 

Would you like to see your business listed on this page?

 If your business provides an interesting product or service to pilots, flight crews, aircraft, or users of the Weatherbee Field Airport, you should consider listing it here.  To start the listing process, click on the button below
 
Add a business
 

Other Pages about Weatherbee Field Airport

Update a link
 
Copyright © AirNav, LLC. All rights reserved. Privacy Policy  Contact